Terminal Aerodrome Forecast
Issued by NWS

Home | Current Version | Previous Version | Text Only | Print | Product List | Glossary On
Versions: 1 2 3 4 5 6 7 8 9 10 11 12 13 14 15 16 17 18 19 20 21 22 23 24 25 26 27 28 29 30 31 32 33 34 35 36 37 38 39 40 41 42 43 44 45 46 47 48 49 50
913
FTUS42 KMFL 240249 AAA
TAFOPF
TAF AMD
KOPF 240249Z 2403/2424 13005KT P6SM SCT035 BKN070 BKN250
     FM240600 VRB03KT P6SM VCSH SCT030 BKN050
     FM241500 14006KT P6SM VCTS SCT030CB BKN050
     FM242000 14012KT P6SM VCTS SCT025CB BKN050=

USA.gov is the U.S. government's official web portal to all federal, state and local government web resources and services.